TimeEDT,TemperatureF,Dew PointF,Humidity,Sea Level PressureIn,VisibilityMPH,Wind Direction,Wind SpeedMPH,Gust SpeedMPH,PrecipitationIn,Events,Conditions,WindDirDegrees,DateUTC
12:56 AM,66.9,36.0,32,29.92,10.0,South,16.1,-,N/A,,Overcast,190,2013-04-07 04:56:00
1:56 AM,64.9,36.0,34,29.92,10.0,SSW,10.4,-,N/A,,Overcast,200,2013-04-07 05:56:00
2:56 AM,66.0,37.0,34,29.91,10.0,SSW,16.1,24.2,N/A,,Overcast,210,2013-04-07 06:56:00
3:56 AM,64.0,37.0,37,29.91,10.0,SSW,13.8,24.2,N/A,,Overcast,200,2013-04-07 07:56:00
4:56 AM,64.0,37.9,38,29.91,10.0,SW,17.3,21.9,N/A,,Overcast,220,2013-04-07 08:56:00
5:56 AM,63.0,37.9,40,29.91,10.0,SSW,15.0,20.7,N/A,,Overcast,200,2013-04-07 09:56:00
6:56 AM,63.0,37.9,40,29.92,10.0,SSW,11.5,19.6,N/A,,Overcast,210,2013-04-07 10:56:00
7:56 AM,63.0,39.0,41,29.94,10.0,SW,15.0,-,N/A,,Overcast,220,2013-04-07 11:56:00
8:56 AM,63.0,39.9,43,29.96,10.0,SSW,11.5,-,N/A,,Mostly Cloudy,210,2013-04-07 12:56:00
9:56 AM,63.0,41.0,45,29.97,10.0,SW,9.2,20.7,N/A,,Mostly Cloudy,220,2013-04-07 13:56:00
10:56 AM,64.9,44.1,47,29.98,10.0,SW,18.4,23.0,N/A,,Mostly Cloudy,220,2013-04-07 14:56:00
11:56 AM,69.1,46.0,44,29.98,10.0,SW,16.1,26.5,N/A,,Mostly Cloudy,230,2013-04-07 15:56:00
12:56 PM,70.0,46.9,44,29.98,10.0,SW,13.8,-,N/A,,Mostly Cloudy,220,2013-04-07 16:56:00
1:56 PM,71.1,48.0,44,29.96,10.0,SSW,12.7,19.6,N/A,,Mostly Cloudy,210,2013-04-07 17:56:00
2:56 PM,71.1,50.0,47,29.96,10.0,SW,13.8,-,N/A,,Mostly Cloudy,220,2013-04-07 18:56:00
3:56 PM,71.1,51.1,49,29.95,10.0,WSW,10.4,-,N/A,,Mostly Cloudy,240,2013-04-07 19:56:00
4:56 PM,73.0,51.1,46,29.95,10.0,SSW,12.7,-,0.00,,Mostly Cloudy,210,2013-04-07 20:56:00
5:56 PM,72.0,50.0,46,29.95,10.0,SSW,12.7,-,N/A,,Mostly Cloudy,210,2013-04-07 21:56:00
6:56 PM,72.0,50.0,46,29.94,10.0,SSW,11.5,-,N/A,,Mostly Cloudy,210,2013-04-07 22:56:00
7:56 PM,71.1,48.9,45,29.94,10.0,SSW,8.1,-,N/A,,Mostly Cloudy,210,2013-04-07 23:56:00
8:56 PM,68.0,48.9,50,29.95,10.0,South,4.6,-,N/A,,Mostly Cloudy,170,2013-04-08 00:56:00
9:56 PM,64.9,48.0,54,29.96,10.0,SSE,6.9,-,N/A,,Partly Cloudy,160,2013-04-08 01:56:00
10:56 PM,66.9,45.0,45,29.97,10.0,South,4.6,-,N/A,,Mostly Cloudy,180,2013-04-08 02:56:00
11:56 PM,64.9,44.1,47,29.97,10.0,South,3.5,-,N/A,,Mostly Cloudy,180,2013-04-08 03:56:00